sensor_id;sensor_type;location;lat;lon;timestamp;temperature;humidity
24686;DHT22;12804;51.176;4.452;2023-04-25T00:01:31;9.90;37.20
24686;DHT22;12804;51.176;4.452;2023-04-25T00:03:59;9.90;42.60
24686;DHT22;12804;51.176;4.452;2023-04-25T00:06:26;9.80;42.00
24686;DHT22;12804;51.176;4.452;2023-04-25T00:08:52;9.80;42.10
24686;DHT22;12804;51.176;4.452;2023-04-25T00:11:19;9.80;45.10
24686;DHT22;12804;51.176;4.452;2023-04-25T00:13:45;9.80;44.70
24686;DHT22;12804;51.176;4.452;2023-04-25T00:16:12;9.70;44.90
24686;DHT22;12804;51.176;4.452;2023-04-25T00:18:40;9.70;45.40
24686;DHT22;12804;51.176;4.452;2023-04-25T00:21:06;9.70;47.40
24686;DHT22;12804;51.176;4.452;2023-04-25T00:23:32;9.80;48.90
24686;DHT22;12804;51.176;4.452;2023-04-25T00:25:57;9.80;43.50
24686;DHT22;12804;51.176;4.452;2023-04-25T00:28:23;9.80;44.40
24686;DHT22;12804;51.176;4.452;2023-04-25T00:30:49;9.80;42.40
24686;DHT22;12804;51.176;4.452;2023-04-25T00:33:15;9.80;40.20
24686;DHT22;12804;51.176;4.452;2023-04-25T00:35:42;9.80;44.30
24686;DHT22;12804;51.176;4.452;2023-04-25T00:38:08;9.80;38.50
24686;DHT22;12804;51.176;4.452;2023-04-25T00:40:34;9.80;40.50
24686;DHT22;12804;51.176;4.452;2023-04-25T00:43:00;9.90;40.50
24686;DHT22;12804;51.176;4.452;2023-04-25T00:45:29;9.90;39.80
24686;DHT22;12804;51.176;4.452;2023-04-25T00:47:56;9.90;35.90
24686;DHT22;12804;51.176;4.452;2023-04-25T00:50:23;9.90;36.30
24686;DHT22;12804;51.176;4.452;2023-04-25T00:52:49;9.90;37.60
24686;DHT22;12804;51.176;4.452;2023-04-25T00:55:15;10.00;33.00
24686;DHT22;12804;51.176;4.452;2023-04-25T00:57:42;9.90;39.70
24686;DHT22;12804;51.176;4.452;2023-04-25T01:00:09;9.90;38.80
24686;DHT22;12804;51.176;4.452;2023-04-25T01:02:36;9.90;40.80
24686;DHT22;12804;51.176;4.452;2023-04-25T01:05:03;9.90;43.00
24686;DHT22;12804;51.176;4.452;2023-04-25T01:07:29;9.80;43.20
24686;DHT22;12804;51.176;4.452;2023-04-25T01:09:56;9.70;43.60
24686;DHT22;12804;51.176;4.452;2023-04-25T01:12:23;9.70;46.70
24686;DHT22;12804;51.176;4.452;2023-04-25T01:14:49;9.80;44.50
24686;DHT22;12804;51.176;4.452;2023-04-25T01:17:15;9.90;36.30
24686;DHT22;12804;51.176;4.452;2023-04-25T01:19:42;9.90;31.50
24686;DHT22;12804;51.176;4.452;2023-04-25T01:22:08;9.90;29.30
24686;DHT22;12804;51.176;4.452;2023-04-25T01:24:36;9.90;31.30
24686;DHT22;12804;51.176;4.452;2023-04-25T01:27:02;9.80;33.30
24686;DHT22;12804;51.176;4.452;2023-04-25T01:29:30;9.80;34.70
24686;DHT22;12804;51.176;4.452;2023-04-25T01:31:56;9.80;35.10
24686;DHT22;12804;51.176;4.452;2023-04-25T01:34:24;9.80;34.20
24686;DHT22;12804;51.176;4.452;2023-04-25T01:36:51;9.80;36.50
24686;DHT22;12804;51.176;4.452;2023-04-25T01:39:18;9.80;37.80
24686;DHT22;12804;51.176;4.452;2023-04-25T01:41:47;9.80;37.10
24686;DHT22;12804;51.176;4.452;2023-04-25T01:44:13;9.90;30.50
24686;DHT22;12804;51.176;4.452;2023-04-25T01:46:40;9.90;27.60
24686;DHT22;12804;51.176;4.452;2023-04-25T01:49:06;9.90;26.40
24686;DHT22;12804;51.176;4.452;2023-04-25T01:51:32;9.80;27.00
24686;DHT22;12804;51.176;4.452;2023-04-25T01:53:59;9.80;28.20
24686;DHT22;12804;51.176;4.452;2023-04-25T01:56:30;9.90;28.50
24686;DHT22;12804;51.176;4.452;2023-04-25T01:58:57;9.70;37.00
24686;DHT22;12804;51.176;4.452;2023-04-25T02:01:43;9.70;45.60
24686;DHT22;12804;51.176;4.452;2023-04-25T02:04:20;9.60;55.50
24686;DHT22;12804;51.176;4.452;2023-04-25T02:06:46;9.60;59.10
24686;DHT22;12804;51.176;4.452;2023-04-25T02:09:12;9.60;61.00
24686;DHT22;12804;51.176;4.452;2023-04-25T02:11:43;9.60;63.80
24686;DHT22;12804;51.176;4.452;2023-04-25T02:14:24;9.70;48.90
24686;DHT22;12804;51.176;4.452;2023-04-25T02:17:04;9.60;52.80
24686;DHT22;12804;51.176;4.452;2023-04-25T02:19:31;9.70;56.80
24686;DHT22;12804;51.176;4.452;2023-04-25T02:21:57;9.70;57.80
24686;DHT22;12804;51.176;4.452;2023-04-25T02:24:23;9.70;63.10
24686;DHT22;12804;51.176;4.452;2023-04-25T02:26:49;9.70;65.40
24686;DHT22;12804;51.176;4.452;2023-04-25T02:29:15;9.80;60.60
24686;DHT22;12804;51.176;4.452;2023-04-25T02:31:42;9.70;69.00
24686;DHT22;12804;51.176;4.452;2023-04-25T02:34:07;9.50;68.80
24686;DHT22;12804;51.176;4.452;2023-04-25T02:36:36;9.20;81.60
24686;DHT22;12804;51.176;4.452;2023-04-25T02:39:01;9.10;88.10
24686;DHT22;12804;51.176;4.452;2023-04-25T02:41:28;9.00;91.60
24686;DHT22;12804;51.176;4.452;2023-04-25T02:43:55;9.00;92.50
24686;DHT22;12804;51.176;4.452;2023-04-25T02:46:20;9.00;94.00
24686;DHT22;12804;51.176;4.452;2023-04-25T02:48:46;9.00;94.50
24686;DHT22;12804;51.176;4.452;2023-04-25T02:51:12;8.90;95.40
24686;DHT22;12804;51.176;4.452;2023-04-25T02:53:38;8.90;96.60
24686;DHT22;12804;51.176;4.452;2023-04-25T02:56:04;8.80;98.30
24686;DHT22;12804;51.176;4.452;2023-04-25T02:58:30;8.80;99.90
24686;DHT22;12804;51.176;4.452;2023-04-25T03:00:56;8.80;99.40
24686;DHT22;12804;51.176;4.452;2023-04-25T03:03:22;8.90;99.80
24686;DHT22;12804;51.176;4.452;2023-04-25T03:05:49;9.00;99.60
24686;DHT22;12804;51.176;4.452;2023-04-25T03:08:19;9.10;99.20
24686;DHT22;12804;51.176;4.452;2023-04-25T03:10:45;9.10;98.00
24686;DHT22;12804;51.176;4.452;2023-04-25T03:13:12;9.00;99.60
24686;DHT22;12804;51.176;4.452;2023-04-25T03:15:41;8.90;99.90
24686;DHT22;12804;51.176;4.452;2023-04-25T03:18:07;8.90;99.90
24686;DHT22;12804;51.176;4.452;2023-04-25T03:20:32;9.00;99.90
24686;DHT22;12804;51.176;4.452;2023-04-25T03:22:58;8.90;99.90
24686;DHT22;12804;51.176;4.452;2023-04-25T03:25:24;8.90;99.90
24686;DHT22;12804;51.176;4.452;2023-04-25T03:27:51;8.80;99.90
24686;DHT22;12804;51.176;4.452;2023-04-25T03:30:17;8.80;99.90
24686;DHT22;12804;51.176;4.452;2023-04-25T03:32:43;8.90;99.90
24686;DHT22;12804;51.176;4.452;2023-04-25T03:35:12;8.90;99.90
24686;DHT22;12804;51.176;4.452;2023-04-25T03:37:38;8.80;99.90
24686;DHT22;12804;51.176;4.452;2023-04-25T03:40:06;8.90;99.90
24686;DHT22;12804;51.176;4.452;2023-04-25T03:42:53;8.90;99.90
24686;DHT22;12804;51.176;4.452;2023-04-25T03:45:19;8.90;99.30
24686;DHT22;12804;51.176;4.452;2023-04-25T03:47:45;8.90;97.90
24686;DHT22;12804;51.176;4.452;2023-04-25T03:50:10;8.90;94.80
24686;DHT22;12804;51.176;4.452;2023-04-25T03:52:36;8.90;95.80
24686;DHT22;12804;51.176;4.452;2023-04-25T03:55:02;8.90;94.40
24686;DHT22;12804;51.176;4.452;2023-04-25T03:57:30;8.90;96.30
24686;DHT22;12804;51.176;4.452;2023-04-25T03:59:56;8.90;97.30
24686;DHT22;12804;51.176;4.452;2023-04-25T04:02:22;8.90;95.40
24686;DHT22;12804;51.176;4.452;2023-04-25T04:04:48;9.00;94.30
24686;DHT22;12804;51.176;4.452;2023-04-25T04:07:15;9.10;90.30
24686;DHT22;12804;51.176;4.452;2023-04-25T04:09:44;9.00;80.80
24686;DHT22;12804;51.176;4.452;2023-04-25T04:12:16;9.00;78.70
24686;DHT22;12804;51.176;4.452;2023-04-25T04:14:42;9.00;71.60
24686;DHT22;12804;51.176;4.452;2023-04-25T04:17:09;8.90;75.50
24686;DHT22;12804;51.176;4.452;2023-04-25T04:19:35;8.90;71.10
24686;DHT22;12804;51.176;4.452;2023-04-25T04:22:10;8.80;78.00
24686;DHT22;12804;51.176;4.452;2023-04-25T04:24:37;8.70;75.70
24686;DHT22;12804;51.176;4.452;2023-04-25T04:27:06;8.60;81.50
24686;DHT22;12804;51.176;4.452;2023-04-25T04:29:35;8.60;84.40
24686;DHT22;12804;51.176;4.452;2023-04-25T04:32:13;8.60;81.80
24686;DHT22;12804;51.176;4.452;2023-04-25T04:34:40;8.60;79.20
24686;DHT22;12804;51.176;4.452;2023-04-25T04:37:07;8.50;73.00
24686;DHT22;12804;51.176;4.452;2023-04-25T04:39:33;8.60;69.60
24686;DHT22;12804;51.176;4.452;2023-04-25T04:42:08;8.60;67.20
24686;DHT22;12804;51.176;4.452;2023-04-25T04:44:57;8.60;69.40
24686;DHT22;12804;51.176;4.452;2023-04-25T04:47:33;8.60;66.60
24686;DHT22;12804;51.176;4.452;2023-04-25T04:50:18;8.60;59.50
24686;DHT22;12804;51.176;4.452;2023-04-25T04:53:13;8.70;53.80
24686;DHT22;12804;51.176;4.452;2023-04-25T04:56:01;8.60;54.00
24686;DHT22;12804;51.176;4.452;2023-04-25T04:58:48;8.60;53.30
24686;DHT22;12804;51.176;4.452;2023-04-25T05:01:43;8.70;57.30
24686;DHT22;12804;51.176;4.452;2023-04-25T05:04:44;8.80;58.40
24686;DHT22;12804;51.176;4.452;2023-04-25T05:07:46;8.80;59.20
24686;DHT22;12804;51.176;4.452;2023-04-25T05:10:38;8.80;58.00
24686;DHT22;12804;51.176;4.452;2023-04-25T05:13:15;8.80;56.60
24686;DHT22;12804;51.176;4.452;2023-04-25T05:16:16;8.90;57.00
24686;DHT22;12804;51.176;4.452;2023-04-25T05:18:50;8.80;58.80
24686;DHT22;12804;51.176;4.452;2023-04-25T05:21:36;8.90;62.30
24686;DHT22;12804;51.176;4.452;2023-04-25T05:24:17;8.90;54.20
24686;DHT22;12804;51.176;4.452;2023-04-25T05:27:03;8.90;49.40
24686;DHT22;12804;51.176;4.452;2023-04-25T05:29:45;9.10;40.60
24686;DHT22;12804;51.176;4.452;2023-04-25T05:32:17;9.00;44.40
24686;DHT22;12804;51.176;4.452;2023-04-25T05:34:45;9.10;40.50
24686;DHT22;12804;51.176;4.452;2023-04-25T05:37:19;9.20;26.10
24686;DHT22;12804;51.176;4.452;2023-04-25T05:39:54;9.30;21.50
24686;DHT22;12804;51.176;4.452;2023-04-25T05:42:36;9.30;22.40
24686;DHT22;12804;51.176;4.452;2023-04-25T05:45:28;9.30;23.90
24686;DHT22;12804;51.176;4.452;2023-04-25T05:48:08;9.40;26.10
24686;DHT22;12804;51.176;4.452;2023-04-25T05:50:56;9.30;24.10
24686;DHT22;12804;51.176;4.452;2023-04-25T05:53:46;9.40;28.00
24686;DHT22;12804;51.176;4.452;2023-04-25T05:56:13;9.30;25.30
24686;DHT22;12804;51.176;4.452;2023-04-25T05:58:39;9.40;27.30
24686;DHT22;12804;51.176;4.452;2023-04-25T06:01:06;9.40;31.10
24686;DHT22;12804;51.176;4.452;2023-04-25T06:03:32;9.50;30.80
24686;DHT22;12804;51.176;4.452;2023-04-25T06:05:58;9.60;31.20
24686;DHT22;12804;51.176;4.452;2023-04-25T06:08:25;9.60;30.10
24686;DHT22;12804;51.176;4.452;2023-04-25T06:10:51;9.80;32.10
24686;DHT22;12804;51.176;4.452;2023-04-25T06:13:18;9.90;29.10
24686;DHT22;12804;51.176;4.452;2023-04-25T06:15:43;10.00;16.60
24686;DHT22;12804;51.176;4.452;2023-04-25T06:18:11;10.00;9.70
24686;DHT22;12804;51.176;4.452;2023-04-25T06:20:36;10.10;8.30
24686;DHT22;12804;51.176;4.452;2023-04-25T06:23:02;10.20;1.00
24686;DHT22;12804;51.176;4.452;2023-04-25T06:25:58;10.20;1.00
24686;DHT22;12804;51.176;4.452;2023-04-25T06:28:25;10.20;1.00
24686;DHT22;12804;51.176;4.452;2023-04-25T06:30:51;10.20;1.00
24686;DHT22;12804;51.176;4.452;2023-04-25T06:33:18;10.10;1.00
24686;DHT22;12804;51.176;4.452;2023-04-25T06:35:46;10.30;1.00
24686;DHT22;12804;51.176;4.452;2023-04-25T06:38:13;10.30;1.00
24686;DHT22;12804;51.176;4.452;2023-04-25T06:40:44;10.20;1.00
24686;DHT22;12804;51.176;4.452;2023-04-25T06:43:11;10.20;1.00
24686;DHT22;12804;51.176;4.452;2023-04-25T06:46:09;10.10;1.00
24686;DHT22;12804;51.176;4.452;2023-04-25T06:48:41;10.10;1.00
24686;DHT22;12804;51.176;4.452;2023-04-25T06:51:07;10.40;16.20
24686;DHT22;12804;51.176;4.452;2023-04-25T06:53:35;10.40;1.00
24686;DHT22;12804;51.176;4.452;2023-04-25T06:56:03;10.20;1.00
24686;DHT22;12804;51.176;4.452;2023-04-25T06:58:50;10.10;1.00
24686;DHT22;12804;51.176;4.452;2023-04-25T07:01:23;10.10;1.00
24686;DHT22;12804;51.176;4.452;2023-04-25T07:03:49;10.10;1.00
24686;DHT22;12804;51.176;4.452;2023-04-25T07:06:17;9.90;1.00
24686;DHT22;12804;51.176;4.452;2023-04-25T07:08:44;10.00;1.00
24686;DHT22;12804;51.176;4.452;2023-04-25T07:11:10;10.00;1.00
24686;DHT22;12804;51.176;4.452;2023-04-25T07:13:36;10.20;1.00
24686;DHT22;12804;51.176;4.452;2023-04-25T07:16:02;10.20;1.00
24686;DHT22;12804;51.176;4.452;2023-04-25T07:18:30;10.10;1.00
24686;DHT22;12804;51.176;4.452;2023-04-25T07:20:56;10.10;1.00
24686;DHT22;12804;51.176;4.452;2023-04-25T07:23:22;10.00;1.00
24686;DHT22;12804;51.176;4.452;2023-04-25T07:25:48;9.90;1.00
24686;DHT22;12804;51.176;4.452;2023-04-25T07:28:19;10.10;1.00
24686;DHT22;12804;51.176;4.452;2023-04-25T07:30:46;10.20;1.00
24686;DHT22;12804;51.176;4.452;2023-04-25T07:33:12;10.30;1.00
24686;DHT22;12804;51.176;4.452;2023-04-25T07:35:39;10.40;1.00
24686;DHT22;12804;51.176;4.452;2023-04-25T07:38:05;10.50;1.00
24686;DHT22;12804;51.176;4.452;2023-04-25T07:40:32;10.60;1.00
24686;DHT22;12804;51.176;4.452;2023-04-25T07:43:04;10.60;1.00
24686;DHT22;12804;51.176;4.452;2023-04-25T07:45:37;10.60;1.00
24686;DHT22;12804;51.176;4.452;2023-04-25T07:48:03;10.60;1.00
24686;DHT22;12804;51.176;4.452;2023-04-25T07:50:31;10.60;1.00
24686;DHT22;12804;51.176;4.452;2023-04-25T07:52:57;10.70;1.00
24686;DHT22;12804;51.176;4.452;2023-04-25T07:55:29;10.80;1.00
24686;DHT22;12804;51.176;4.452;2023-04-25T07:58:04;11.10;1.00
24686;DHT22;12804;51.176;4.452;2023-04-25T08:00:31;11.50;1.00
24686;DHT22;12804;51.176;4.452;2023-04-25T08:03:17;11.70;1.00
24686;DHT22;12804;51.176;4.452;2023-04-25T08:05:43;12.00;1.00
24686;DHT22;12804;51.176;4.452;2023-04-25T08:08:09;12.30;1.00
24686;DHT22;12804;51.176;4.452;2023-04-25T08:10:35;12.40;1.00
24686;DHT22;12804;51.176;4.452;2023-04-25T08:13:01;12.30;1.00
24686;DHT22;12804;51.176;4.452;2023-04-25T08:15:27;12.20;1.00
24686;DHT22;12804;51.176;4.452;2023-04-25T08:17:53;12.10;1.00
24686;DHT22;12804;51.176;4.452;2023-04-25T08:20:20;11.90;1.00
24686;DHT22;12804;51.176;4.452;2023-04-25T08:22:46;11.60;1.00
24686;DHT22;12804;51.176;4.452;2023-04-25T08:25:34;11.20;1.00
24686;DHT22;12804;51.176;4.452;2023-04-25T08:28:02;11.10;1.00
24686;DHT22;12804;51.176;4.452;2023-04-25T08:30:29;10.90;1.00
24686;DHT22;12804;51.176;4.452;2023-04-25T08:32:55;10.80;1.00
24686;DHT22;12804;51.176;4.452;2023-04-25T08:35:33;10.70;1.00
24686;DHT22;12804;51.176;4.452;2023-04-25T08:37:59;10.80;1.00
24686;DHT22;12804;51.176;4.452;2023-04-25T08:40:28;11.00;1.00
24686;DHT22;12804;51.176;4.452;2023-04-25T08:43:02;11.20;1.00
24686;DHT22;12804;51.176;4.452;2023-04-25T08:45:31;11.40;1.00
24686;DHT22;12804;51.176;4.452;2023-04-25T08:47:58;11.60;1.00
24686;DHT22;12804;51.176;4.452;2023-04-25T08:50:24;11.90;1.00
24686;DHT22;12804;51.176;4.452;2023-04-25T08:52:53;12.00;1.00
24686;DHT22;12804;51.176;4.452;2023-04-25T08:55:21;12.10;1.00
24686;DHT22;12804;51.176;4.452;2023-04-25T08:57:49;12.30;1.00
24686;DHT22;12804;51.176;4.452;2023-04-25T09:00:16;12.70;1.00
24686;DHT22;12804;51.176;4.452;2023-04-25T09:02:44;13.00;1.00
24686;DHT22;12804;51.176;4.452;2023-04-25T09:05:13;13.10;1.00
24686;DHT22;12804;51.176;4.452;2023-04-25T09:07:39;13.00;1.00
24686;DHT22;12804;51.176;4.452;2023-04-25T09:10:06;12.90;1.00
24686;DHT22;12804;51.176;4.452;2023-04-25T09:12:36;12.80;99.90
24686;DHT22;12804;51.176;4.452;2023-04-25T09:15:11;12.60;99.90
24686;DHT22;12804;51.176;4.452;2023-04-25T09:18:03;12.50;99.90
24686;DHT22;12804;51.176;4.452;2023-04-25T09:20:43;12.60;99.90
24686;DHT22;12804;51.176;4.452;2023-04-25T09:23:09;12.80;99.90
24686;DHT22;12804;51.176;4.452;2023-04-25T09:25:37;12.90;99.90
24686;DHT22;12804;51.176;4.452;2023-04-25T09:28:06;12.90;99.90
24686;DHT22;12804;51.176;4.452;2023-04-25T09:30:34;13.20;90.10
24686;DHT22;12804;51.176;4.452;2023-04-25T09:33:33;13.30;99.90
24686;DHT22;12804;51.176;4.452;2023-04-25T09:36:08;13.20;99.90
24686;DHT22;12804;51.176;4.452;2023-04-25T09:39:00;13.30;99.90
24686;DHT22;12804;51.176;4.452;2023-04-25T09:41:37;13.30;99.90
24686;DHT22;12804;51.176;4.452;2023-04-25T09:44:03;13.50;1.00
24686;DHT22;12804;51.176;4.452;2023-04-25T09:46:35;13.70;1.00
24686;DHT22;12804;51.176;4.452;2023-04-25T09:49:08;13.60;99.90
24686;DHT22;12804;51.176;4.452;2023-04-25T09:51:55;13.50;1.00
24686;DHT22;12804;51.176;4.452;2023-04-25T09:54:23;13.30;99.90
24686;DHT22;12804;51.176;4.452;2023-04-25T09:56:55;13.10;99.90
24686;DHT22;12804;51.176;4.452;2023-04-25T09:59:22;13.10;1.00
24686;DHT22;12804;51.176;4.452;2023-04-25T10:01:49;13.00;99.90
24686;DHT22;12804;51.176;4.452;2023-04-25T10:04:28;13.00;1.00
24686;DHT22;12804;51.176;4.452;2023-04-25T10:07:09;12.90;99.90
24686;DHT22;12804;51.176;4.452;2023-04-25T10:09:39;12.90;99.90
24686;DHT22;12804;51.176;4.452;2023-04-25T10:12:07;13.00;99.90
24686;DHT22;12804;51.176;4.452;2023-04-25T10:14:34;13.20;99.90
24686;DHT22;12804;51.176;4.452;2023-04-25T10:17:00;13.20;1.00
24686;DHT22;12804;51.176;4.452;2023-04-25T10:19:27;13.30;1.00
24686;DHT22;12804;51.176;4.452;2023-04-25T10:24:47;13.00;1.00
24686;DHT22;12804;51.176;4.452;2023-04-25T10:27:13;12.90;1.00
24686;DHT22;12804;51.176;4.452;2023-04-25T10:29:41;12.90;99.90
24686;DHT22;12804;51.176;4.452;2023-04-25T10:32:09;12.80;99.90
24686;DHT22;12804;51.176;4.452;2023-04-25T10:34:44;12.70;99.90
24686;DHT22;12804;51.176;4.452;2023-04-25T10:37:13;12.60;99.90
24686;DHT22;12804;51.176;4.452;2023-04-25T10:39:40;12.70;1.00
24686;DHT22;12804;51.176;4.452;2023-04-25T10:42:07;12.80;1.00
24686;DHT22;12804;51.176;4.452;2023-04-25T10:44:37;12.90;1.00
24686;DHT22;12804;51.176;4.452;2023-04-25T10:47:07;13.00;1.00
24686;DHT22;12804;51.176;4.452;2023-04-25T10:49:37;13.20;1.00
24686;DHT22;12804;51.176;4.452;2023-04-25T10:52:28;13.50;42.40
24686;DHT22;12804;51.176;4.452;2023-04-25T10:54:58;13.60;1.00
24686;DHT22;12804;51.176;4.452;2023-04-25T11:00:18;14.60;1.00
24686;DHT22;12804;51.176;4.452;2023-04-25T11:02:52;16.60;99.90
24686;DHT22;12804;51.176;4.452;2023-04-25T11:05:34;18.30;99.90
24686;DHT22;12804;51.176;4.452;2023-04-25T11:08:01;18.30;1.00
24686;DHT22;12804;51.176;4.452;2023-04-25T11:10:30;17.90;1.00
24686;DHT22;12804;51.176;4.452;2023-04-25T11:13:00;17.80;1.00
24686;DHT22;12804;51.176;4.452;2023-04-25T11:15:26;17.70;1.00
24686;DHT22;12804;51.176;4.452;2023-04-25T11:17:53;17.90;1.00
24686;DHT22;12804;51.176;4.452;2023-04-25T11:20:19;18.40;1.00
24686;DHT22;12804;51.176;4.452;2023-04-25T11:22:46;19.20;1.00
24686;DHT22;12804;51.176;4.452;2023-04-25T11:25:14;19.50;1.00
24686;DHT22;12804;51.176;4.452;2023-04-25T11:27:54;20.40;99.90
24686;DHT22;12804;51.176;4.452;2023-04-25T11:30:22;20.60;99.90
24686;DHT22;12804;51.176;4.452;2023-04-25T11:32:48;20.70;83.70
24686;DHT22;12804;51.176;4.452;2023-04-25T11:35:14;21.10;2.20
24686;DHT22;12804;51.176;4.452;2023-04-25T11:37:42;21.40;1.00
24686;DHT22;12804;51.176;4.452;2023-04-25T11:40:09;21.20;1.00
24686;DHT22;12804;51.176;4.452;2023-04-25T11:42:44;21.90;1.00
24686;DHT22;12804;51.176;4.452;2023-04-25T11:45:11;22.40;1.00
24686;DHT22;12804;51.176;4.452;2023-04-25T11:47:37;22.80;1.00
24686;DHT22;12804;51.176;4.452;2023-04-25T11:50:04;22.40;1.00
24686;DHT22;12804;51.176;4.452;2023-04-25T11:52:44;22.20;1.00
24686;DHT22;12804;51.176;4.452;2023-04-25T11:55:14;22.80;1.00
24686;DHT22;12804;51.176;4.452;2023-04-25T11:57:41;23.20;1.00
24686;DHT22;12804;51.176;4.452;2023-04-25T12:02:44;22.70;1.00
24686;DHT22;12804;51.176;4.452;2023-04-25T12:05:11;21.60;1.00
24686;DHT22;12804;51.176;4.452;2023-04-25T12:07:38;21.70;1.00
24686;DHT22;12804;51.176;4.452;2023-04-25T12:10:11;22.00;1.00
24686;DHT22;12804;51.176;4.452;2023-04-25T12:12:41;22.90;1.00
24686;DHT22;12804;51.176;4.452;2023-04-25T12:15:09;22.30;1.00
24686;DHT22;12804;51.176;4.452;2023-04-25T12:17:35;22.70;1.00
24686;DHT22;12804;51.176;4.452;2023-04-25T12:20:12;23.00;1.00
24686;DHT22;12804;51.176;4.452;2023-04-25T12:22:41;22.90;1.00
24686;DHT22;12804;51.176;4.452;2023-04-25T12:25:20;22.00;1.00
24686;DHT22;12804;51.176;4.452;2023-04-25T12:28:22;21.30;1.00
24686;DHT22;12804;51.176;4.452;2023-04-25T12:30:57;21.60;1.00
24686;DHT22;12804;51.176;4.452;2023-04-25T12:33:24;20.80;1.00
24686;DHT22;12804;51.176;4.452;2023-04-25T12:35:51;21.50;1.00
24686;DHT22;12804;51.176;4.452;2023-04-25T12:38:40;22.20;1.00
24686;DHT22;12804;51.176;4.452;2023-04-25T12:41:06;22.60;1.00
24686;DHT22;12804;51.176;4.452;2023-04-25T12:43:32;23.10;1.00
24686;DHT22;12804;51.176;4.452;2023-04-25T12:45:59;24.50;1.00
24686;DHT22;12804;51.176;4.452;2023-04-25T12:48:25;25.70;1.00
24686;DHT22;12804;51.176;4.452;2023-04-25T12:50:51;25.50;1.00
24686;DHT22;12804;51.176;4.452;2023-04-25T12:53:19;25.00;1.00
24686;DHT22;12804;51.176;4.452;2023-04-25T12:55:45;23.80;1.00
24686;DHT22;12804;51.176;4.452;2023-04-25T12:58:18;23.20;1.00
24686;DHT22;12804;51.176;4.452;2023-04-25T13:00:44;22.80;1.00
24686;DHT22;12804;51.176;4.452;2023-04-25T13:03:10;22.30;1.00
24686;DHT22;12804;51.176;4.452;2023-04-25T13:05:41;20.90;1.00
24686;DHT22;12804;51.176;4.452;2023-04-25T13:08:07;19.80;1.00
24686;DHT22;12804;51.176;4.452;2023-04-25T13:10:33;19.70;1.00
24686;DHT22;12804;51.176;4.452;2023-04-25T13:12:59;19.80;1.00
24686;DHT22;12804;51.176;4.452;2023-04-25T13:15:27;20.30;1.00
24686;DHT22;12804;51.176;4.452;2023-04-25T13:17:52;21.40;1.00
24686;DHT22;12804;51.176;4.452;2023-04-25T13:20:18;22.10;1.00
24686;DHT22;12804;51.176;4.452;2023-04-25T13:22:48;22.40;1.00
24686;DHT22;12804;51.176;4.452;2023-04-25T13:25:13;23.20;1.00
24686;DHT22;12804;51.176;4.452;2023-04-25T13:27:39;23.60;1.00
24686;DHT22;12804;51.176;4.452;2023-04-25T13:30:06;24.10;1.00
24686;DHT22;12804;51.176;4.452;2023-04-25T13:32:37;24.90;1.00
24686;DHT22;12804;51.176;4.452;2023-04-25T13:35:04;25.20;1.00
24686;DHT22;12804;51.176;4.452;2023-04-25T13:37:30;24.40;1.00
24686;DHT22;12804;51.176;4.452;2023-04-25T13:39:59;22.80;1.00
24686;DHT22;12804;51.176;4.452;2023-04-25T13:42:26;21.70;1.00
24686;DHT22;12804;51.176;4.452;2023-04-25T13:44:52;21.90;1.00
24686;DHT22;12804;51.176;4.452;2023-04-25T13:47:17;22.60;1.00
24686;DHT22;12804;51.176;4.452;2023-04-25T13:49:43;23.20;1.00
24686;DHT22;12804;51.176;4.452;2023-04-25T13:52:09;24.70;1.00
24686;DHT22;12804;51.176;4.452;2023-04-25T13:54:35;25.50;1.00
24686;DHT22;12804;51.176;4.452;2023-04-25T13:57:00;26.20;1.00
24686;DHT22;12804;51.176;4.452;2023-04-25T13:59:27;26.70;1.00
24686;DHT22;12804;51.176;4.452;2023-04-25T14:01:53;28.20;1.00
24686;DHT22;12804;51.176;4.452;2023-04-25T14:04:18;28.30;99.90
24686;DHT22;12804;51.176;4.452;2023-04-25T14:06:44;27.60;99.90
24686;DHT22;12804;51.176;4.452;2023-04-25T14:09:11;27.90;99.90
24686;DHT22;12804;51.176;4.452;2023-04-25T14:11:41;27.70;99.90
24686;DHT22;12804;51.176;4.452;2023-04-25T14:14:06;28.10;99.90
24686;DHT22;12804;51.176;4.452;2023-04-25T14:16:33;28.20;99.90
24686;DHT22;12804;51.176;4.452;2023-04-25T14:18:59;28.20;99.90
24686;DHT22;12804;51.176;4.452;2023-04-25T14:21:26;28.20;99.90
24686;DHT22;12804;51.176;4.452;2023-04-25T14:23:52;28.30;99.90
24686;DHT22;12804;51.176;4.452;2023-04-25T14:26:18;28.10;99.90
24686;DHT22;12804;51.176;4.452;2023-04-25T14:28:44;27.90;99.90
24686;DHT22;12804;51.176;4.452;2023-04-25T14:31:10;27.30;99.90
24686;DHT22;12804;51.176;4.452;2023-04-25T14:33:36;26.80;99.90
24686;DHT22;12804;51.176;4.452;2023-04-25T14:36:05;27.30;99.90
24686;DHT22;12804;51.176;4.452;2023-04-25T14:38:31;28.00;99.90
24686;DHT22;12804;51.176;4.452;2023-04-25T14:40:56;28.20;99.90
24686;DHT22;12804;51.176;4.452;2023-04-25T14:43:22;28.70;99.90
24686;DHT22;12804;51.176;4.452;2023-04-25T14:45:48;28.90;99.90
24686;DHT22;12804;51.176;4.452;2023-04-25T14:48:14;29.30;99.90
24686;DHT22;12804;51.176;4.452;2023-04-25T14:50:40;29.30;99.90
24686;DHT22;12804;51.176;4.452;2023-04-25T14:53:06;28.80;99.90
24686;DHT22;12804;51.176;4.452;2023-04-25T14:55:32;28.10;99.90
24686;DHT22;12804;51.176;4.452;2023-04-25T14:57:58;28.60;99.90
24686;DHT22;12804;51.176;4.452;2023-04-25T15:00:24;29.60;99.90
24686;DHT22;12804;51.176;4.452;2023-04-25T15:02:51;29.90;99.90
24686;DHT22;12804;51.176;4.452;2023-04-25T15:05:17;29.90;99.90
24686;DHT22;12804;51.176;4.452;2023-04-25T15:07:43;30.10;99.90
24686;DHT22;12804;51.176;4.452;2023-04-25T15:10:10;29.60;99.90
24686;DHT22;12804;51.176;4.452;2023-04-25T15:12:42;28.30;99.90
24686;DHT22;12804;51.176;4.452;2023-04-25T15:15:08;28.20;99.90
24686;DHT22;12804;51.176;4.452;2023-04-25T15:17:40;28.80;99.90
24686;DHT22;12804;51.176;4.452;2023-04-25T15:20:07;29.50;99.90
24686;DHT22;12804;51.176;4.452;2023-04-25T15:22:39;30.10;99.90
24686;DHT22;12804;51.176;4.452;2023-04-25T15:25:09;30.40;99.90
24686;DHT22;12804;51.176;4.452;2023-04-25T15:27:39;29.20;99.90
24686;DHT22;12804;51.176;4.452;2023-04-25T15:30:08;27.90;99.90
24686;DHT22;12804;51.176;4.452;2023-04-25T15:32:36;27.00;99.90
24686;DHT22;12804;51.176;4.452;2023-04-25T15:35:04;26.30;99.90
24686;DHT22;12804;51.176;4.452;2023-04-25T15:37:31;26.10;99.90
24686;DHT22;12804;51.176;4.452;2023-04-25T15:40:02;25.20;99.90
24686;DHT22;12804;51.176;4.452;2023-04-25T15:42:44;25.60;99.90
24686;DHT22;12804;51.176;4.452;2023-04-25T15:45:13;26.70;99.90
24686;DHT22;12804;51.176;4.452;2023-04-25T15:47:40;26.90;99.90
24686;DHT22;12804;51.176;4.452;2023-04-25T15:50:07;27.60;99.90
24686;DHT22;12804;51.176;4.452;2023-04-25T15:52:35;27.60;99.90
24686;DHT22;12804;51.176;4.452;2023-04-25T15:55:01;27.50;99.90
24686;DHT22;12804;51.176;4.452;2023-04-25T15:57:29;27.60;99.90
24686;DHT22;12804;51.176;4.452;2023-04-25T15:59:55;28.40;99.90
24686;DHT22;12804;51.176;4.452;2023-04-25T16:02:21;27.10;99.90
24686;DHT22;12804;51.176;4.452;2023-04-25T16:04:47;27.20;99.90
24686;DHT22;12804;51.176;4.452;2023-04-25T16:07:13;26.80;99.90